Time;durP1;ratioP1;P1;durP2;ratioP2;P2;SDS_P1;SDS_P2;PMS_P1;PMS_P2;Temp;Humidity;BMP_temperature;BMP_pressure;BME280_temperature;BME280_humidity;BME280_pressure;Samples;Min_cycle;Max_cycle;Signal;HPM_P1;HPM_P2
2023/07/04 00:01:47;;;;;;;4.65;1.40;;;;;;;;;;5018484;28;20057;-74
2023/07/04 00:04:16;;;;;;;4.53;1.20;;;;;;;;;;5015367;28;20033;-74
2023/07/04 00:06:42;;;;;;;2.03;0.98;;;;;;;;;;5032302;28;20036;-74
2023/07/04 00:09:09;;;;;;;4.10;1.27;;;;;;;;;;5034994;28;20431;-74
2023/07/04 00:11:35;;;;;;;2.60;1.20;;;;;;;;;;5035315;28;20036;-74
2023/07/04 00:14:01;;;;;;;7.00;1.73;;;;;;;;;;5024145;28;20030;-74
2023/07/04 00:16:27;;;;;;;6.25;1.40;;;;;;;;;;5032856;28;20041;-74
2023/07/04 00:18:53;;;;;;;2.30;1.00;;;;;;;;;;5034812;28;20621;-74
2023/07/04 00:21:19;;;;;;;2.47;1.20;;;;;;;;;;5017116;28;20018;-74
2023/07/04 00:23:47;;;;;;;2.70;1.00;;;;;;;;;;5014923;28;20058;-74
2023/07/04 00:26:16;;;;;;;6.07;1.52;;;;;;;;;;5013558;28;20028;-74
2023/07/04 00:28:43;;;;;;;2.55;1.08;;;;;;;;;;5019152;28;20368;-74
2023/07/04 00:31:09;;;;;;;3.90;1.05;;;;;;;;;;5026732;28;20037;-74
2023/07/04 00:33:36;;;;;;;4.53;1.40;;;;;;;;;;5034100;28;20022;-74
2023/07/04 00:36:10;;;;;;;4.57;1.45;;;;;;;;;;5030185;28;20018;-74
2023/07/04 00:38:37;;;;;;;5.45;1.15;;;;;;;;;;5026746;28;20025;-74
2023/07/04 00:41:09;;;;;;;3.95;1.20;;;;;;;;;;5019842;28;20021;-74
2023/07/04 00:43:56;;;;;;;3.25;1.15;;;;;;;;;;5021336;28;20032;-74
2023/07/04 00:46:28;;;;;;;4.32;1.38;;;;;;;;;;5021398;28;20075;-74
2023/07/04 00:48:57;;;;;;;6.07;1.20;;;;;;;;;;5034533;28;20083;-74
2023/07/04 00:51:23;;;;;;;5.53;1.20;;;;;;;;;;5034177;28;20558;-74
2023/07/04 00:53:53;;;;;;;3.83;1.25;;;;;;;;;;5033939;28;20051;-74
2023/07/04 00:56:20;;;;;;;2.72;1.38;;;;;;;;;;5026385;28;20105;-74
2023/07/04 00:58:46;;;;;;;4.05;1.30;;;;;;;;;;5015676;28;20496;-74
2023/07/04 01:01:12;;;;;;;3.05;0.90;;;;;;;;;;5031958;28;20048;-74
2023/07/04 01:03:38;;;;;;;2.92;1.02;;;;;;;;;;5014141;28;20030;-74
2023/07/04 01:06:12;;;;;;;3.20;1.20;;;;;;;;;;5015184;28;20104;-74
2023/07/04 01:08:42;;;;;;;6.22;1.00;;;;;;;;;;5033882;28;20505;-74
2023/07/04 01:11:12;;;;;;;5.15;1.27;;;;;;;;;;5033801;28;20021;-74
2023/07/04 01:13:43;;;;;;;3.88;1.00;;;;;;;;;;5033792;28;20034;-74
2023/07/04 01:16:17;;;;;;;6.28;1.00;;;;;;;;;;5016473;28;20018;-74
2023/07/04 01:18:47;;;;;;;4.03;0.77;;;;;;;;;;5025925;28;20045;-74
2023/07/04 01:21:19;;;;;;;3.05;0.90;;;;;;;;;;5014121;28;20026;-74
2023/07/04 01:23:54;;;;;;;3.40;1.38;;;;;;;;;;5013818;28;20548;-74
2023/07/04 01:26:23;;;;;;;3.28;1.05;;;;;;;;;;5025797;28;20439;-74
2023/07/04 01:28:53;;;;;;;3.15;1.00;;;;;;;;;;5013763;28;20531;-74
2023/07/04 01:31:20;;;;;;;3.67;0.70;;;;;;;;;;5022725;28;20025;-74
2023/07/04 01:33:48;;;;;;;1.50;0.80;;;;;;;;;;5031170;28;20373;-74
2023/07/04 01:36:15;;;;;;;5.90;2.13;;;;;;;;;;5021828;28;20010;-74
2023/07/04 01:38:42;;;;;;;2.20;0.70;;;;;;;;;;5033321;28;20037;-74
2023/07/04 01:41:08;;;;;;;3.00;0.75;;;;;;;;;;5024591;28;20029;-74
2023/07/04 01:43:33;;;;;;;4.68;0.82;;;;;;;;;;5013716;28;20028;-73
2023/07/04 01:46:01;;;;;;;2.97;0.90;;;;;;;;;;5004732;28;20440;-74
2023/07/04 01:48:27;;;;;;;1.90;0.60;;;;;;;;;;4992371;28;20085;-74
2023/07/04 01:50:53;;;;;;;4.72;0.95;;;;;;;;;;4993766;28;20113;-73
2023/07/04 01:53:19;;;;;;;0.98;0.68;;;;;;;;;;4995648;28;20109;-74
2023/07/04 01:55:45;;;;;;;6.40;1.13;;;;;;;;;;5013263;28;20108;-73
2023/07/04 01:58:11;;;;;;;4.05;0.88;;;;;;;;;;5013653;28;20072;-73
2023/07/04 02:00:38;;;;;;;1.48;0.70;;;;;;;;;;5012292;28;20050;-74
2023/07/04 02:03:04;;;;;;;5.20;0.80;;;;;;;;;;4999733;28;20022;-74
2023/07/04 02:05:30;;;;;;;3.78;1.05;;;;;;;;;;5013102;28;20045;-73
2023/07/04 02:07:56;;;;;;;3.25;1.08;;;;;;;;;;5012715;28;20073;-73
2023/07/04 02:10:22;;;;;;;5.97;1.10;;;;;;;;;;5022835;28;20503;-74
2023/07/04 02:12:48;;;;;;;5.00;1.05;;;;;;;;;;5032384;28;20052;-74
2023/07/04 02:15:14;;;;;;;3.22;0.77;;;;;;;;;;5032624;28;20423;-74
2023/07/04 02:17:40;;;;;;;3.60;1.20;;;;;;;;;;5032490;28;20507;-74
2023/07/04 02:20:07;;;;;;;4.25;1.30;;;;;;;;;;5022879;28;20018;-74
2023/07/04 02:22:33;;;;;;;4.18;1.00;;;;;;;;;;5027539;28;20018;-74
2023/07/04 02:24:59;;;;;;;3.97;1.40;;;;;;;;;;5022718;28;20385;-74
2023/07/04 02:27:25;;;;;;;3.38;1.00;;;;;;;;;;5015278;28;20440;-73
2023/07/04 02:29:51;;;;;;;5.07;1.02;;;;;;;;;;5032362;28;20125;-73
2023/07/04 02:32:17;;;;;;;5.55;1.35;;;;;;;;;;5018579;28;20457;-74
2023/07/04 02:34:44;;;;;;;6.18;1.63;;;;;;;;;;5022675;28;20076;-73
2023/07/04 02:37:10;;;;;;;1.80;0.90;;;;;;;;;;5015335;28;20041;-74
2023/07/04 02:39:36;;;;;;;3.33;0.77;;;;;;;;;;5032407;28;20438;-73
2023/07/04 02:42:04;;;;;;;4.88;0.77;;;;;;;;;;5031927;28;20041;-74
2023/07/04 02:44:30;;;;;;;1.65;0.65;;;;;;;;;;5023344;28;20028;-73
2023/07/04 02:46:56;;;;;;;0.52;0.40;;;;;;;;;;5015705;28;20544;-74
2023/07/04 02:49:22;;;;;;;0.57;0.43;;;;;;;;;;5032019;28;20041;-74
2023/07/04 02:51:48;;;;;;;1.20;0.40;;;;;;;;;;5016046;28;20052;-74
2023/07/04 02:54:18;;;;;;;1.30;0.40;;;;;;;;;;5012027;28;20488;-74
2023/07/04 02:56:45;;;;;;;1.48;0.45;;;;;;;;;;4998684;28;20400;-73
2023/07/04 02:59:11;;;;;;;1.75;0.50;;;;;;;;;;5012291;28;20475;-74
2023/07/04 03:01:37;;;;;;;1.67;0.55;;;;;;;;;;5015804;28;20049;-74
2023/07/04 03:04:03;;;;;;;2.92;0.82;;;;;;;;;;5033225;28;20053;-73
2023/07/04 03:06:29;;;;;;;1.38;0.50;;;;;;;;;;5032036;28;20091;-74
2023/07/04 03:08:56;;;;;;;1.05;0.77;;;;;;;;;;5006001;28;20034;-74
2023/07/04 03:11:22;;;;;;;4.15;0.82;;;;;;;;;;5000664;28;20025;-74
2023/07/04 03:13:48;;;;;;;4.85;1.50;;;;;;;;;;5014614;28;20033;-74
2023/07/04 03:16:14;;;;;;;4.45;0.77;;;;;;;;;;5015917;28;20058;-74
2023/07/04 03:18:40;;;;;;;4.50;0.70;;;;;;;;;;5026832;28;20064;-74
2023/07/04 03:21:06;;;;;;;2.15;0.60;;;;;;;;;;5035814;28;20448;-74
2023/07/04 03:23:32;;;;;;;1.60;0.90;;;;;;;;;;5035744;28;20033;-74
2023/07/04 03:25:58;;;;;;;3.20;0.90;;;;;;;;;;5035806;28;20028;-74
2023/07/04 03:28:24;;;;;;;3.33;0.68;;;;;;;;;;5035519;28;20722;-74
2023/07/04 03:30:50;;;;;;;5.28;1.00;;;;;;;;;;5035557;28;20022;-74
2023/07/04 03:33:16;;;;;;;1.52;0.55;;;;;;;;;;5035465;28;20076;-73
2023/07/04 03:35:42;;;;;;;1.58;0.65;;;;;;;;;;5022103;28;20105;-74
2023/07/04 03:38:08;;;;;;;2.80;1.10;;;;;;;;;;5035475;28;20041;-74
2023/07/04 03:40:34;;;;;;;4.97;1.38;;;;;;;;;;5031362;28;20093;-74
2023/07/04 03:43:00;;;;;;;2.92;0.80;;;;;;;;;;5015690;28;20034;-73
2023/07/04 03:45:26;;;;;;;4.25;0.80;;;;;;;;;;5015658;28;20030;-74
2023/07/04 03:47:52;;;;;;;2.72;0.70;;;;;;;;;;5015430;28;20080;-73
2023/07/04 03:50:18;;;;;;;4.05;1.08;;;;;;;;;;5015399;28;20409;-74
2023/07/04 03:52:45;;;;;;;3.38;0.70;;;;;;;;;;5015171;28;20033;-74
2023/07/04 03:55:11;;;;;;;4.15;1.00;;;;;;;;;;5014322;28;20022;-74
2023/07/04 03:57:37;;;;;;;1.58;0.68;;;;;;;;;;5015144;28;20034;-73
2023/07/04 04:00:06;;;;;;;9.57;1.15;;;;;;;;;;5030443;28;20042;-74
2023/07/04 04:02:32;;;;;;;2.67;0.80;;;;;;;;;;5023595;28;20021;-74
2023/07/04 04:04:58;;;;;;;3.55;0.70;;;;;;;;;;5032280;28;20072;-74
2023/07/04 04:07:23;;;;;;;6.05;0.90;;;;;;;;;;5023551;28;20707;-74
2023/07/04 04:09:50;;;;;;;7.15;1.27;;;;;;;;;;5028353;28;20034;-74
2023/07/04 04:12:16;;;;;;;3.85;0.95;;;;;;;;;;5015099;28;20065;-73
2023/07/04 04:14:43;;;;;;;2.42;0.85;;;;;;;;;;5027941;28;20445;-74
2023/07/04 04:17:10;;;;;;;4.18;0.80;;;;;;;;;;5026790;28;20025;-74
2023/07/04 04:19:36;;;;;;;4.53;0.95;;;;;;;;;;5034613;28;20537;-74
2023/07/04 04:22:03;;;;;;;2.05;0.80;;;;;;;;;;5023298;28;20420;-74
2023/07/04 04:24:29;;;;;;;6.57;1.20;;;;;;;;;;5014540;28;20037;-73
2023/07/04 04:26:55;;;;;;;4.38;0.90;;;;;;;;;;5004984;28;20034;-74
2023/07/04 04:29:22;;;;;;;3.60;0.80;;;;;;;;;;5021284;28;20040;-74
2023/07/04 04:31:48;;;;;;;3.80;0.70;;;;;;;;;;5025725;28;20028;-74
2023/07/04 04:34:16;;;;;;;3.60;0.65;;;;;;;;;;5014558;28;20022;-74
2023/07/04 04:36:43;;;;;;;4.72;0.70;;;;;;;;;;5023616;28;20021;-74
2023/07/04 04:39:09;;;;;;;3.08;0.60;;;;;;;;;;5012180;28;20401;-74
2023/07/04 04:41:36;;;;;;;2.17;0.68;;;;;;;;;;5015408;28;20033;-74
2023/07/04 04:44:04;;;;;;;3.45;0.73;;;;;;;;;;5026773;28;20228;-74
2023/07/04 04:46:30;;;;;;;5.47;0.90;;;;;;;;;;5014441;28;20511;-74
2023/07/04 04:48:58;;;;;;;4.78;0.70;;;;;;;;;;5018929;28;20045;-73
2023/07/04 04:51:24;;;;;;;6.90;1.00;;;;;;;;;;5034469;28;20026;-74
2023/07/04 04:53:52;;;;;;;5.43;0.60;;;;;;;;;;5034006;28;20025;-74
2023/07/04 04:56:17;;;;;;;5.00;1.33;;;;;;;;;;5033236;28;20022;-74
2023/07/04 04:58:44;;;;;;;2.97;0.70;;;;;;;;;;5033824;28;20084;-74
2023/07/04 05:01:19;;;;;;;3.88;0.90;;;;;;;;;;5016700;28;20065;-74
2023/07/04 05:03:46;;;;;;;6.20;0.80;;;;;;;;;;4994909;28;20023;-74
2023/07/04 05:06:12;;;;;;;2.72;0.80;;;;;;;;;;4994504;28;20049;-74
2023/07/04 05:08:39;;;;;;;3.63;0.85;;;;;;;;;;4994380;28;20026;-74
2023/07/04 05:11:07;;;;;;;4.57;0.80;;;;;;;;;;5015059;28;20037;-74
2023/07/04 05:13:34;;;;;;;4.72;0.85;;;;;;;;;;5014224;28;20169;-74
2023/07/04 05:16:01;;;;;;;3.13;0.90;;;;;;;;;;5013933;28;20025;-74
2023/07/04 05:18:28;;;;;;;1.40;0.82;;;;;;;;;;5013868;28;20050;-74
2023/07/04 05:21:04;;;;;;;3.20;0.93;;;;;;;;;;5033586;28;20464;-74
2023/07/04 05:23:34;;;;;;;3.65;0.80;;;;;;;;;;5033678;28;20032;-74
2023/07/04 05:26:01;;;;;;;6.00;0.85;;;;;;;;;;5024577;28;20026;-74
2023/07/04 05:28:27;;;;;;;2.13;0.52;;;;;;;;;;5028960;28;20487;-74
2023/07/04 05:31:00;;;;;;;1.95;0.57;;;;;;;;;;5033482;28;20026;-74
2023/07/04 05:33:26;;;;;;;3.75;0.73;;;;;;;;;;5033210;28;20383;-74
2023/07/04 05:35:52;;;;;;;3.97;0.43;;;;;;;;;;5033332;28;20018;-74
2023/07/04 05:38:18;;;;;;;4.15;0.80;;;;;;;;;;5017120;28;20056;-74
2023/07/04 05:40:44;;;;;;;1.40;0.60;;;;;;;;;;5013569;28;20105;-74
2023/07/04 05:43:10;;;;;;;2.13;0.63;;;;;;;;;;5028789;28;20084;-74
2023/07/04 05:45:36;;;;;;;4.68;0.90;;;;;;;;;;5032859;28;20030;-74
2023/07/04 05:48:02;;;;;;;4.20;0.70;;;;;;;;;;5032726;28;20034;-74
2023/07/04 05:50:28;;;;;;;2.60;0.82;;;;;;;;;;5032813;28;20029;-74
2023/07/04 05:52:55;;;;;;;3.17;0.80;;;;;;;;;;5032857;28;20371;-74
2023/07/04 05:55:21;;;;;;;1.92;0.60;;;;;;;;;;5033122;28;20040;-74
2023/07/04 05:57:47;;;;;;;3.78;0.80;;;;;;;;;;5032744;28;20022;-74
2023/07/04 06:00:13;;;;;;;4.22;0.70;;;;;;;;;;5015042;28;20038;-75
2023/07/04 06:02:39;;;;;;;3.70;0.80;;;;;;;;;;5029888;28;20106;-74
2023/07/04 06:05:06;;;;;;;2.38;0.70;;;;;;;;;;5025571;28;20017;-74
2023/07/04 06:07:32;;;;;;;2.97;0.60;;;;;;;;;;5013097;28;20018;-74
2023/07/04 06:09:58;;;;;;;2.30;0.90;;;;;;;;;;5012941;28;20634;-75
2023/07/04 06:12:24;;;;;;;2.83;0.65;;;;;;;;;;5012848;28;20030;-75
2023/07/04 06:14:50;;;;;;;6.38;1.00;;;;;;;;;;5023381;28;20022;-74
2023/07/04 06:17:16;;;;;;;2.50;0.70;;;;;;;;;;5028553;28;20017;-75
2023/07/04 06:19:42;;;;;;;2.55;0.85;;;;;;;;;;5012495;28;20060;-74
2023/07/04 06:22:08;;;;;;;3.58;0.85;;;;;;;;;;5012391;28;20133;-74
2023/07/04 06:24:36;;;;;;;4.22;0.90;;;;;;;;;;5023432;28;20743;-75
2023/07/04 06:27:02;;;;;;;3.03;0.65;;;;;;;;;;5028350;28;20022;-74
2023/07/04 06:29:28;;;;;;;4.25;0.77;;;;;;;;;;5012888;28;20034;-75
2023/07/04 06:31:54;;;;;;;4.88;0.93;;;;;;;;;;5012631;28;20041;-75
2023/07/04 06:34:21;;;;;;;3.67;0.98;;;;;;;;;;5012727;28;20034;-74
2023/07/04 06:36:49;;;;;;;3.78;0.88;;;;;;;;;;5025916;28;20024;-75
2023/07/04 06:39:15;;;;;;;2.85;0.80;;;;;;;;;;5011930;28;20515;-75
2023/07/04 06:41:41;;;;;;;4.57;1.00;;;;;;;;;;5012741;28;20022;-74
2023/07/04 06:44:07;;;;;;;5.05;0.80;;;;;;;;;;5023022;28;20488;-74
2023/07/04 06:46:33;;;;;;;3.22;1.05;;;;;;;;;;5032121;28;20104;-74
2023/07/04 06:48:59;;;;;;;4.75;0.98;;;;;;;;;;5032057;28;20045;-74
2023/07/04 06:51:29;;;;;;;2.28;0.70;;;;;;;;;;5032110;28;20030;-75
2023/07/04 06:53:55;;;;;;;;;;;;;;;;;;5024750;28;20018;-74
2023/07/04 06:56:22;;;;;;;2.95;0.80;;;;;;;;;;5016730;28;19914;-75
2023/07/04 06:58:55;;;;;;;2.00;0.70;;;;;;;;;;5020582;28;20045;-74
2023/07/04 07:01:28;;;;;;;3.50;0.80;;;;;;;;;;5012305;28;20061;-74
2023/07/04 07:03:54;;;;;;;3.10;0.68;;;;;;;;;;5025610;28;20018;-75
2023/07/04 07:06:20;;;;;;;3.40;1.00;;;;;;;;;;5014439;28;20018;-75
2023/07/04 07:08:46;;;;;;;3.08;0.90;;;;;;;;;;5012520;28;20034;-75
2023/07/04 07:11:15;;;;;;;4.28;1.48;;;;;;;;;;5031926;28;20025;-75
2023/07/04 07:13:41;;;;;;;4.53;1.23;;;;;;;;;;5017869;28;20097;-75
2023/07/04 07:16:14;;;;;;;5.80;1.00;;;;;;;;;;5012257;28;20026;-75
2023/07/04 07:18:41;;;;;;;4.30;0.80;;;;;;;;;;5014078;28;20030;-75
2023/07/04 07:21:08;;;;;;;1.75;0.93;;;;;;;;;;5031838;28;20633;-75
2023/07/04 07:23:36;;;;;;;2.50;0.90;;;;;;;;;;5023017;28;20049;-75
2023/07/04 07:26:03;;;;;;;2.40;1.05;;;;;;;;;;4998753;28;20029;-75
2023/07/04 07:28:31;;;;;;;3.13;1.10;;;;;;;;;;5008646;28;20038;-75
2023/07/04 07:31:32;;;;;;;4.53;0.80;;;;;;;;;;5012087;28;20033;-75
2023/07/04 07:33:58;;;;;;;4.53;1.05;;;;;;;;;;4951228;29;20039;-74
2023/07/04 07:36:26;;;;;;;5.63;1.27;;;;;;;;;;5013273;28;20052;-75
2023/07/04 07:38:53;;;;;;;5.32;1.08;;;;;;;;;;5012308;28;20037;-75
2023/07/04 07:41:20;;;;;;;7.20;1.58;;;;;;;;;;5011739;28;20030;-75
2023/07/04 07:43:46;;;;;;;6.82;1.25;;;;;;;;;;5010631;28;20041;-75
2023/07/04 07:46:14;;;;;;;5.07;1.30;;;;;;;;;;5012605;28;20034;-75
2023/07/04 07:48:40;;;;;;;6.05;1.65;;;;;;;;;;5018425;28;20087;-74
2023/07/04 07:51:07;;;;;;;6.25;1.55;;;;;;;;;;5016277;28;20037;-74
2023/07/04 07:53:35;;;;;;;6.63;1.63;;;;;;;;;;5035564;28;20025;-75
2023/07/04 07:56:01;;;;;;;7.05;1.65;;;;;;;;;;5029448;28;20038;-75
2023/07/04 07:58:27;;;;;;;6.45;1.52;;;;;;;;;;5015338;28;20038;-75
2023/07/04 08:00:53;;;;;;;3.92;1.23;;;;;;;;;;5014013;28;20061;-75
2023/07/04 08:03:19;;;;;;;8.25;1.70;;;;;;;;;;5015294;28;20380;-75
2023/07/04 08:05:45;;;;;;;4.30;1.30;;;;;;;;;;5015173;28;20445;-75
2023/07/04 08:08:12;;;;;;;6.90;1.60;;;;;;;;;;5015308;28;20026;-75
2023/07/04 08:10:39;;;;;;;5.95;1.33;;;;;;;;;;5015264;28;20052;-74
2023/07/04 08:13:05;;;;;;;8.27;1.58;;;;;;;;;;5015186;28;20030;-74
2023/07/04 08:15:31;;;;;;;8.43;1.58;;;;;;;;;;5015017;28;20464;-75
2023/07/04 08:17:57;;;;;;;9.27;1.98;;;;;;;;;;5015099;28;20022;-75
2023/07/04 08:20:23;;;;;;;4.57;1.80;;;;;;;;;;5027546;28;20033;-75
2023/07/04 08:22:49;;;;;;;7.65;1.98;;;;;;;;;;5015150;28;20029;-75
2023/07/04 08:25:15;;;;;;;7.28;1.80;;;;;;;;;;5027924;28;20057;-75
2023/07/04 08:27:41;;;;;;;6.15;1.48;;;;;;;;;;5023130;28;20045;-75
2023/07/04 08:30:08;;;;;;;7.25;1.63;;;;;;;;;;5031730;28;20465;-75
2023/07/04 08:32:34;;;;;;;6.28;1.60;;;;;;;;;;5013884;28;20022;-75
2023/07/04 08:35:00;;;;;;;4.60;1.40;;;;;;;;;;5014276;28;20026;-75
2023/07/04 08:37:26;;;;;;;4.43;1.30;;;;;;;;;;5013965;28;20026;-75
2023/07/04 08:39:52;;;;;;;8.35;2.00;;;;;;;;;;5025263;28;20524;-75
2023/07/04 08:42:19;;;;;;;6.47;1.67;;;;;;;;;;5014644;28;20185;-75
2023/07/04 08:44:46;;;;;;;5.55;1.27;;;;;;;;;;5014628;28;20096;-75
2023/07/04 08:47:28;;;;;;;4.72;0.88;;;;;;;;;;4999910;28;20036;-75
2023/07/04 08:50:03;;;;;;;3.92;0.93;;;;;;;;;;5014779;28;20026;-75
2023/07/04 08:52:33;;;;;;;5.32;1.30;;;;;;;;;;5011895;28;20501;-75
2023/07/04 08:54:59;;;;;;;4.43;1.42;;;;;;;;;;5001618;28;20093;-75
2023/07/04 08:57:40;;;;;;;7.00;1.92;;;;;;;;;;5011735;28;20030;-75
2023/07/04 09:00:14;;;;;;;5.20;1.25;;;;;;;;;;5008941;28;20030;-76
2023/07/04 09:03:05;;;;;;;4.95;1.10;;;;;;;;;;4993895;28;20066;-75
2023/07/04 09:05:40;;;;;;;6.05;1.30;;;;;;;;;;4994713;28;20026;-74
2023/07/04 09:08:19;;;;;;;6.85;1.10;;;;;;;;;;5002772;28;20029;-74
2023/07/04 09:10:46;;;;;;;;;;;;;;;;;;5016201;28;20058;-74
2023/07/04 09:13:15;;;;;;;3.95;1.00;;;;;;;;;;5034219;28;19909;-74
2023/07/04 09:15:43;;;;;;;6.93;1.40;;;;;;;;;;5032462;28;20026;-74
2023/07/04 09:18:09;;;;;;;7.53;1.58;;;;;;;;;;5033648;28;20124;-74
2023/07/04 09:20:41;;;;;;;6.47;1.30;;;;;;;;;;5016245;28;20100;-74
2023/07/04 09:23:11;;;;;;;3.80;1.08;;;;;;;;;;5017465;28;20025;-74
2023/07/04 09:25:38;;;;;;;2.90;1.00;;;;;;;;;;5032928;28;20091;-74
2023/07/04 09:28:05;;;;;;;4.82;1.23;;;;;;;;;;5021869;28;20501;-74
2023/07/04 09:30:31;;;;;;;5.97;1.40;;;;;;;;;;5018967;28;20028;-74
2023/07/04 09:32:58;;;;;;;5.50;1.27;;;;;;;;;;5017111;28;20389;-74
2023/07/04 09:35:24;;;;;;;6.65;1.48;;;;;;;;;;5027540;28;20029;-74
2023/07/04 09:38:00;;;;;;;8.38;1.83;;;;;;;;;;5021209;28;20034;-74
2023/07/04 09:40:38;;;;;;;4.97;1.00;;;;;;;;;;5004484;28;20087;-74
2023/07/04 09:43:04;;;;;;;6.95;1.35;;;;;;;;;;5015435;28;20527;-74
2023/07/04 09:45:32;;;;;;;9.02;1.73;;;;;;;;;;5011741;28;20683;-74
2023/07/04 09:47:58;;;;;;;3.42;1.30;;;;;;;;;;5012119;28;20026;-75
2023/07/04 09:50:26;;;;;;;6.38;1.00;;;;;;;;;;5013493;28;20022;-75
2023/07/04 09:53:01;;;;;;;6.68;1.33;;;;;;;;;;5014439;28;20509;-74
2023/07/04 09:55:27;;;;;;;5.30;1.38;;;;;;;;;;5014992;28;20102;-74
2023/07/04 09:57:53;;;;;;;3.97;1.40;;;;;;;;;;5016589;28;20033;-74
2023/07/04 10:00:24;;;;;;;6.38;1.63;;;;;;;;;;5030487;28;20037;-75
2023/07/04 10:02:57;;;;;;;4.95;1.42;;;;;;;;;;5017334;28;20033;-74
2023/07/04 10:05:28;;;;;;;6.55;1.85;;;;;;;;;;5017766;28;20061;-74
2023/07/04 10:08:01;;;;;;;4.13;1.20;;;;;;;;;;5016333;28;20032;-74
2023/07/04 10:10:28;;;;;;;6.15;1.17;;;;;;;;;;5020885;28;20033;-74
2023/07/04 10:12:54;;;;;;;5.75;1.33;;;;;;;;;;5020461;28;20029;-74
2023/07/04 10:15:24;;;;;;;6.60;1.20;;;;;;;;;;5019725;28;20080;-74
2023/07/04 10:17:50;;;;;;;6.22;1.30;;;;;;;;;;5031920;28;20025;-74
2023/07/04 10:20:16;;;;;;;6.07;1.52;;;;;;;;;;5031563;28;20025;-74
2023/07/04 10:22:52;;;;;;;5.90;1.40;;;;;;;;;;5023746;28;20049;-74
2023/07/04 10:25:22;;;;;;;4.55;1.55;;;;;;;;;;5012835;28;20366;-74
2023/07/04 10:27:50;;;;;;;8.38;1.85;;;;;;;;;;5012644;28;20477;-74
2023/07/04 10:30:17;;;;;;;8.02;1.75;;;;;;;;;;5016381;28;20026;-74
2023/07/04 10:32:46;;;;;;;5.85;1.60;;;;;;;;;;5020168;28;20037;-74
2023/07/04 10:35:15;;;;;;;3.35;1.30;;;;;;;;;;5012375;28;20022;-74
2023/07/04 10:37:43;;;;;;;6.50;1.30;;;;;;;;;;5004033;28;20378;-74
2023/07/04 10:40:14;;;;;;;6.07;1.50;;;;;;;;;;5017203;28;20108;-74
2023/07/04 10:42:40;;;;;;;6.85;1.55;;;;;;;;;;5027624;28;20114;-74
2023/07/04 10:45:07;;;;;;;6.25;1.35;;;;;;;;;;5026279;28;20464;-74
2023/07/04 10:47:35;;;;;;;4.32;1.08;;;;;;;;;;5032050;28;20053;-74
2023/07/04 10:50:08;;;;;;;7.20;1.58;;;;;;;;;;5012284;28;20104;-74
2023/07/04 10:52:36;;;;;;;4.65;1.17;;;;;;;;;;5012436;28;20030;-73
2023/07/04 10:55:02;;;;;;;5.97;1.30;;;;;;;;;;5029323;28;20090;-73
2023/07/04 10:57:29;;;;;;;4.97;1.30;;;;;;;;;;5014391;28;20488;-73
2023/07/04 10:59:58;;;;;;;5.05;1.50;;;;;;;;;;5027095;28;20097;-74
2023/07/04 11:02:23;;;;;;;5.53;1.30;;;;;;;;;;5030504;28;20842;-74
2023/07/04 11:04:49;;;;;;;6.40;1.20;;;;;;;;;;5012167;28;20026;-74
2023/07/04 11:07:23;;;;;;;4.47;1.70;;;;;;;;;;5012310;28;20401;-74
2023/07/04 11:09:53;;;;;;;7.65;1.30;;;;;;;;;;5021118;28;20110;-74
2023/07/04 11:12:19;;;;;;;;;;;;;;;;;;5011358;28;20032;-74
2023/07/04 11:14:46;;;;;;;7.28;1.58;;;;;;;;;;5019268;28;20403;-74
2023/07/04 11:17:14;;;;;;;3.60;1.27;;;;;;;;;;5015427;28;20026;-74
2023/07/04 11:19:55;;;;;;;7.38;1.35;;;;;;;;;;5021661;28;20033;-74
2023/07/04 11:22:21;;;;;;;4.18;1.25;;;;;;;;;;5030887;28;20071;-74
2023/07/04 11:24:54;;;;;;;3.42;1.20;;;;;;;;;;5032791;28;20109;-74
2023/07/04 11:27:24;;;;;;;4.55;1.50;;;;;;;;;;4996414;28;20049;-74
2023/07/04 11:29:52;;;;;;;4.03;1.38;;;;;;;;;;5009359;28;20394;-74
2023/07/04 11:32:20;;;;;;;4.85;1.10;;;;;;;;;;5023425;28;20022;-73
2023/07/04 11:34:48;;;;;;;6.22;1.17;;;;;;;;;;5021430;28;20108;-74
2023/07/04 11:37:19;;;;;;;5.15;1.20;;;;;;;;;;5035245;28;20022;-73
2023/07/04 11:39:48;;;;;;;3.63;0.95;;;;;;;;;;5018619;28;20370;-73
2023/07/04 11:42:14;;;;;;;;;;;;;;;;;;5034285;28;20470;-73
2023/07/04 11:44:57;;;;;;;4.93;1.20;;;;;;;;;;5021378;28;19963;-73
2023/07/04 11:47:33;;;;;;;4.63;1.20;;;;;;;;;;5024370;28;20462;-73
2023/07/04 11:50:01;;;;;;;3.70;0.85;;;;;;;;;;5027850;28;20026;-73
2023/07/04 11:52:29;;;;;;;7.60;1.10;;;;;;;;;;5015328;28;20041;-73
2023/07/04 11:54:56;;;;;;;8.32;1.30;;;;;;;;;;5027073;28;20417;-73
2023/07/04 11:57:22;;;;;;;5.32;1.60;;;;;;;;;;5015322;28;20367;-73
2023/07/04 11:59:48;;;;;;;5.90;1.02;;;;;;;;;;5015324;28;20033;-74
2023/07/04 12:02:24;;;;;;;5.63;1.58;;;;;;;;;;5013955;28;20140;-73
2023/07/04 12:04:51;;;;;;;3.40;1.10;;;;;;;;;;4995779;28;20026;-74
2023/07/04 12:07:19;;;;;;;7.13;1.27;;;;;;;;;;5012226;28;20030;-73
2023/07/04 12:09:52;;;;;;;6.13;1.20;;;;;;;;;;5035270;28;20117;-74
2023/07/04 12:12:20;;;;;;;6.60;1.23;;;;;;;;;;5033178;28;20014;-74
2023/07/04 12:14:48;;;;;;;4.97;1.05;;;;;;;;;;5025381;28;20030;-73
2023/07/04 12:17:14;;;;;;;5.03;1.30;;;;;;;;;;5016384;28;20056;-74
2023/07/04 12:19:42;;;;;;;6.25;1.30;;;;;;;;;;5024641;28;20036;-74
2023/07/04 12:22:13;;;;;;;3.63;1.10;;;;;;;;;;5029939;28;20103;-74
2023/07/04 12:24:40;;;;;;;6.35;1.73;;;;;;;;;;5022434;28;20029;-74
2023/07/04 12:27:06;;;;;;;7.18;1.60;;;;;;;;;;5014991;28;20034;-73
2023/07/04 12:29:35;;;;;;;7.70;1.23;;;;;;;;;;5022987;28;20040;-73
2023/07/04 12:32:03;;;;;;;3.95;1.20;;;;;;;;;;5005842;28;20026;-73
2023/07/04 12:34:29;;;;;;;4.07;1.52;;;;;;;;;;5029696;28;20025;-74
2023/07/04 12:36:55;;;;;;;6.00;1.40;;;;;;;;;;5016069;28;20512;-74
2023/07/04 12:39:21;;;;;;;5.20;1.40;;;;;;;;;;5019748;28;20021;-74
2023/07/04 12:41:47;;;;;;;5.43;1.50;;;;;;;;;;5027631;28;20054;-74
2023/07/04 12:44:14;;;;;;;6.03;1.48;;;;;;;;;;5022013;28;20072;-74
2023/07/04 12:46:42;;;;;;;5.50;1.23;;;;;;;;;;5018817;28;20469;-74
2023/07/04 12:49:09;;;;;;;4.75;1.02;;;;;;;;;;5018141;28;20120;-74
2023/07/04 12:51:35;;;;;;;3.78;1.40;;;;;;;;;;5014180;28;20484;-74
2023/07/04 12:54:02;;;;;;;4.85;1.38;;;;;;;;;;5021472;28;20032;-74
2023/07/04 12:56:29;;;;;;;5.00;1.33;;;;;;;;;;5009670;28;20049;-73
2023/07/04 12:58:55;;;;;;;6.03;1.38;;;;;;;;;;5025369;28;20037;-74
2023/07/04 13:01:21;;;;;;;4.25;1.40;;;;;;;;;;5016441;28;20042;-74
2023/07/04 13:03:47;;;;;;;4.85;1.00;;;;;;;;;;5014225;28;20468;-74
2023/07/04 13:06:21;;;;;;;5.80;1.35;;;;;;;;;;5012802;28;20030;-73
2023/07/04 13:08:48;;;;;;;6.18;1.20;;;;;;;;;;5007709;28;20065;-74
2023/07/04 13:11:15;;;;;;;6.40;1.27;;;;;;;;;;5016335;28;20033;-74
2023/07/04 13:13:43;;;;;;;4.53;1.35;;;;;;;;;;5013732;28;20037;-74
2023/07/04 13:16:28;;;;;;;3.97;1.48;;;;;;;;;;5027330;28;20364;-74
2023/07/04 13:18:54;;;;;;;8.50;1.35;;;;;;;;;;5029169;28;20029;-74
2023/07/04 13:21:32;;;;;;;8.18;1.65;;;;;;;;;;5004031;28;20078;-74
2023/07/04 13:23:59;;;;;;;5.20;1.27;;;;;;;;;;5016343;28;20030;-74
2023/07/04 13:26:29;;;;;;;4.50;1.20;;;;;;;;;;5023502;28;20022;-74
2023/07/04 13:28:57;;;;;;;4.88;1.35;;;;;;;;;;5013755;28;20030;-74
2023/07/04 13:31:26;;;;;;;8.50;1.45;;;;;;;;;;5013457;28;20022;-74
2023/07/04 13:33:56;;;;;;;4.72;1.30;;;;;;;;;;5012982;28;20044;-74
2023/07/04 13:36:32;;;;;;;4.47;1.20;;;;;;;;;;5019804;28;20049;-74
2023/07/04 13:38:59;;;;;;;9.73;1.58;;;;;;;;;;5015141;28;20046;-74
2023/07/04 13:41:25;;;;;;;7.35;1.30;;;;;;;;;;5016389;28;20040;-74
2023/07/04 13:43:51;;;;;;;9.63;1.58;;;;;;;;;;5023264;28;20022;-74
2023/07/04 13:46:18;;;;;;;6.05;1.30;;;;;;;;;;5016971;28;20014;-74
2023/07/04 13:48:44;;;;;;;3.78;1.48;;;;;;;;;;5028485;28;20087;-74
2023/07/04 13:51:11;;;;;;;6.50;1.70;;;;;;;;;;5019650;28;20096;-74
2023/07/04 13:53:37;;;;;;;6.50;1.45;;;;;;;;;;5032969;28;20022;-74
2023/07/04 13:56:04;;;;;;;6.85;1.50;;;;;;;;;;5019595;28;20188;-74
2023/07/04 13:58:30;;;;;;;5.35;1.27;;;;;;;;;;5020061;28;20018;-74
2023/07/04 14:00:56;;;;;;;6.90;1.52;;;;;;;;;;5018735;28;20058;-74
2023/07/04 14:03:22;;;;;;;9.00;1.70;;;;;;;;;;5013872;28;20109;-74
2023/07/04 14:05:49;;;;;;;7.35;1.35;;;;;;;;;;5013667;28;20028;-74
2023/07/04 14:08:17;;;;;;;6.25;1.45;;;;;;;;;;5020696;28;20037;-75
2023/07/04 14:10:43;;;;;;;3.10;1.17;;;;;;;;;;5001584;28;20085;-74
2023/07/04 14:13:09;;;;;;;6.60;1.60;;;;;;;;;;5012607;28;20097;-74
2023/07/04 14:15:35;;;;;;;4.22;1.40;;;;;;;;;;5013015;28;20470;-74
2023/07/04 14:18:02;;;;;;;3.97;1.27;;;;;;;;;;5012624;28;20033;-74
2023/07/04 14:20:29;;;;;;;6.95;1.55;;;;;;;;;;5013123;28;20084;-73
2023/07/04 14:22:55;;;;;;;7.45;1.58;;;;;;;;;;5011519;28;20048;-73
2023/07/04 14:25:21;;;;;;;5.53;1.40;;;;;;;;;;5000897;28;20445;-73
2023/07/04 14:27:47;;;;;;;3.95;1.42;;;;;;;;;;5010867;28;20037;-73
2023/07/04 14:30:13;;;;;;;6.80;1.30;;;;;;;;;;5001125;28;20037;-73
2023/07/04 14:32:40;;;;;;;8.27;1.95;;;;;;;;;;5000324;28;20106;-73
2023/07/04 14:35:06;;;;;;;5.60;1.33;;;;;;;;;;5012771;28;20361;-73
2023/07/04 14:37:33;;;;;;;5.65;1.50;;;;;;;;;;5020519;28;20023;-73
2023/07/04 14:39:59;;;;;;;4.63;1.10;;;;;;;;;;5016068;28;20057;-73
2023/07/04 14:42:25;;;;;;;4.82;1.17;;;;;;;;;;5031453;28;20053;-74
2023/07/04 14:44:51;;;;;;;5.35;1.50;;;;;;;;;;5019323;28;20079;-73
2023/07/04 14:47:18;;;;;;;6.22;1.80;;;;;;;;;;5018157;28;20026;-73